Terminal Aerodrome Forecast
Issued by NWS

Home | Current Version | Previous Version | Graphics & Text | Print | Product List | Glossary On
Versions: 1 2 3 4 5 6 7 8 9 10 11 12 13 14 15 16 17 18 19 20 21 22 23
236
FTUS43 KGRB 201524 AAC
TAFCWA
TAF AMD
KCWA 201524Z 2015/2112 14007KT 5SM BR OVC008
      TEMPO 2016/2017 P6SM NSW BKN012
     FM201700 17010G16KT P6SM SCT015 BKN070
     FM201900 18009KT P6SM VCTS BKN015CB
     FM210300 32004KT P6SM BKN045
     FM210600 34004KT 5SM BR SCT012 SCT040
     FM210900 04004KT 2SM BR BKN010=

USA.gov is the U.S. government's official web portal to all federal, state and local government web resources and services.